Hub


Voltar

 INFORMAÇÕES METEOROLÓGICAS

METAR FOR SBKG


ADDS - METARS form results

(0602 UTC 17 January 2019)
Data provider http://aviationweather.gov/metar/data/
 
Forecast for: SBKG (CAMPINA GRANDE , BR)
Text: TAF SBKG 162100Z 1700/1712 10007KT 9000 SCT015 TN21/1707Z TX24/1711Z
Forecast period: 0000 to 1200 UTC 17 January 2019
Forecast type: FROM: standard forecast or significant change
Winds: from the E (100 degrees) at 8 MPH (7 knots; 3.6 m/s)
Visibility: 6 miles (9 km)
Ceiling: at least 12,000 feet AGL
Clouds: scattered clouds at 1500 feet AGL
Weather: no significant weather forecast for this period
Text: PROB30 1703/1709 BKN011 RMK PCN
Forecast period: 0300 to 0900 UTC 17 January 2019
Forecast type: PROBABLE: 30 percent likelihood of the following during this time
Visibility: missing
Ceiling: 1100 feet AGL
Clouds: broken clouds at 1100 feet AGL
Weather: no significant weather forecast for this period


 MAPA DO AEROPORTO


 INFORMAÇÕES DA PISTA

Pista 15 Tamanho da pista 5249 ft Largura da pista 138 ft
Elevação da pista 0 ft Ranhura da pista 0 ft Proa da pista 0
Pista 33 Tamanho da pista 5249 ft Largura da pista 138 ft
Elevação da pista 0 ft Ranhura da pista 0 ft Proa da pista 0

 FREQUÊNCIAS DO AEROPORTO

Tipo AFIS Nome CAMPINA GR Frequência 125.9 MHZ

 AUXÍLIOS DE NAVEGAÇÃO PRÓXIMOS AO AEROPORTO

Tipo NDB Nome Campina Grande Frequência 230 KHZ